Flight Track Log - Related Links

Times and Time Zones

All times are in EST time to prevent confusion due to time zone crossing. See the EJA396 flight status page for this flight to view local times or setup timezone preferences in your user account.


Time Position Orientation Groundspeed Altitude Reporting Facility
EST Latitude Longitude Course Direction KTS MPH feet Rate Location/Type
Wed 12:14:44 PM 34.4261 -119.8614 271° West 187 215 700  Level Los Angeles Center
Wed 12:15:02 PM 34.4264 -119.8822 271° West 187 215 1,700 2,000 Climbing Los Angeles Center
Wed 12:15:08 PM 34.4250 -119.8794 121° Southeast 156 180 1,500 2,471 Descending Los Angeles Center
Wed 12:16:10 PM 34.3981 -119.9322 238° Southwest 277 319 4,500 3,145 Climbing Los Angeles Center
Wed 12:17:12 PM 34.3211 -119.8892 155° Southeast 260 299 8,000 1,839 Climbing Los Angeles Center
Wed 12:18:14 PM 34.2525 -119.8458 152° Southeast 275 316 8,300 1,742 Climbing Los Angeles Center
Wed 12:19:16 PM 34.1811 -119.7997 152° Southeast 286 329 11,600 3,290 Climbing Los Angeles Center
Wed 12:20:18 PM 34.1597 -119.6894 103° East 352 405 15,100 3,000 Climbing Los Angeles Center
Wed 12:21:20 PM 34.1706 -119.5678 84° East 363 418 17,800 1,887 Climbing Los Angeles Center
Wed 12:22:22 PM 34.2003 -119.4444 74° East 385 443 19,000 1,306 Climbing Los Angeles Center
Wed 12:23:24 PM 34.2411 -119.2961 72° East 386 444 20,500 968 Climbing Los Angeles Center
Wed 12:24:26 PM 34.2764 -119.1719 71° East 390 449 21,000 242 Climbing Los Angeles Center
Wed 12:25:28 PM 34.3103 -119.0483 72° East 387 445 21,000 435 Level Los Angeles Center
Wed 12:26:30 PM 34.3436 -118.9253 72° East 385 443 21,900 968 Climbing Los Angeles Center
Wed 12:27:32 PM 34.3786 -118.7986 71° East 392 451 23,000 532 Climbing Los Angeles Center
Wed 12:28:34 PM 34.4125 -118.6736 72° East 391 450 23,000 145 Level Los Angeles Center
Wed 12:29:36 PM 34.4531 -118.5242 72° East 388 447 23,300 1,500 Climbing Los Angeles Center
Wed 12:30:38 PM 34.4878 -118.3994 71° East 391 450 26,100 1,790 Climbing Los Angeles Center
Wed 12:31:40 PM 34.5228 -118.2714 72° East 398 458 27,000 435 Climbing Los Angeles Center
Wed 12:32:42 PM 34.5558 -118.1442 72° East 396 456 27,000  Level Los Angeles Center
Wed 12:33:44 PM 34.5922 -118.0086 72° East 389 448 27,000  Level Los Angeles Center
Wed 12:34:46 PM 34.6242 -117.8886 72° East 378 435 27,000  Level Los Angeles Center
Wed 12:35:48 PM 34.6553 -117.7708 72° East 371 427 27,000  Level Los Angeles Center
Wed 12:36:50 PM 34.6856 -117.6544 72° East 367 422 27,000  Level Los Angeles Center
Wed 12:37:53 PM 34.7153 -117.5386 73° East 364 419 27,000  Level Los Angeles Center
Wed 12:38:55 PM 34.7514 -117.4008 72° East 361 415 27,000  Level Los Angeles Center
Wed 12:39:57 PM 34.7808 -117.2853 73° East 361 415 27,000  Level Los Angeles Center
Wed 12:40:59 PM 34.8117 -117.1694 72° East 361 415 27,000  Level Los Angeles Center
Wed 12:42:01 PM 34.8411 -117.0531 73° East 362 417 27,000  Level Los Angeles Center
Wed 12:43:03 PM 34.8703 -116.9361 73° East 363 418 27,000  Level Los Angeles Center
Wed 12:44:17 PM 34.9064 -116.7972 72° East 360 414 27,000  Level Los Angeles Center
Wed 12:45:20 PM 34.9414 -116.6564 73° East 363 418 27,000  Level Los Angeles Center
Wed 12:46:22 PM 34.9864 -116.5472 63° Northeast 363 418 27,000 -871 Level Los Angeles Center
Wed 12:47:24 PM 35.0572 -116.4567 46° Northeast 368 423 25,200 -1,452 Descending Los Angeles Center
Wed 12:48:26 PM 35.1328 -116.3631 45° Northeast 382 440 24,000 -1,065 Descending Los Angeles Center
Wed 12:49:28 PM 35.2211 -116.2542 45° Northeast 378 435 23,000 -1,200 Descending Los Angeles Center
Wed 12:50:31 PM 35.2897 -116.1664 46° Northeast 361 415 21,500 -1,536 Descending Los Angeles Center
Wed 12:51:33 PM 35.3611 -116.0742 46° Northeast 370 426 19,800 -1,597 Descending Los Angeles Center
Wed 12:52:35 PM 35.4339 -115.9819 46° Northeast 374 430 18,200 -1,548 Descending Los Angeles Center
Wed 12:53:37 PM 35.5175 -115.8778 45° Northeast 376 433 16,600 -1,548 Descending Los Angeles Center
Wed 12:54:39 PM 35.5831 -115.7958 45° Northeast 344 396 15,000 -1,622 Descending Los Angeles Center
Wed 12:54:51 PM 35.6031 -115.7775 37° Northeast 341 392 14,600 -1,527 Descending Los Angeles Center
Wed 12:55:34 PM 35.6469 -115.7211 46° Northeast 329 379 13,600 -1,200 Descending Los Angeles Center
Wed 12:55:41 PM 35.6467 -115.7136 93° East 335 386 13,600 -590 Level Los Angeles Center
Wed 12:56:35 PM 35.7061 -115.6442 43° Northeast 303 349 13,000 -581 Descending Los Angeles Center
Wed 12:56:43 PM 35.7039 -115.6408 129° Southeast 307 353 13,000  Level Los Angeles Center
Wed 12:57:46 PM 35.7778 -115.5742 36° Northeast 298 343 13,000  Level Los Angeles Center
Wed 12:58:36 PM 35.8519 -115.5706 North 304 350 13,000  Level Los Angeles Center
Wed 12:58:48 PM 35.8697 -115.5683 North 308 354 13,000  Level Los Angeles Center
Wed 12:59:50 PM 35.9531 -115.5600 North 305 351 13,000  Level Los Angeles Center
Wed 12:59:55 PM 35.9647 -115.5528 27° Northeast 310 357 13,000  Level Los Angeles Center
Wed 01:00:38 PM 35.9931 -115.4931 60° Northeast 296 341 13,000 -316 Level Los Angeles Center
Wed 01:00:52 PM 36.0003 -115.4722 67° East 292 336 12,700 -1,343 Descending Los Angeles Center
Wed 01:01:45 PM 36.0222 -115.3986 70° East 276 318 11,500 -1,452 Descending Los Angeles Center
Wed 01:01:54 PM 36.0278 -115.3850 63° Northeast 276 318 11,200 -1,200 Descending Los Angeles Center
Wed 01:02:40 PM 36.0264 -115.3175 91° East 260 299 10,400 -1,065 Descending Los Angeles Center
Wed 01:02:56 PM 36.0247 -115.2897 94° East 257 296 10,100 -985 Descending Los Angeles Center
Wed 01:03:47 PM 36.0200 -115.2186 95° East 254 292 9,300 -968 Descending Los Angeles Center
Wed 01:03:58 PM 36.0192 -115.2036 94° East 255 293 9,100 -889 Descending Los Angeles Center
Wed 01:04:41 PM 36.0139 -115.1408 96° East 236 272 8,500 -762 Descending Los Angeles Center
Wed 01:05:01 PM 36.0133 -115.1172 92° East 238 274 8,300 -545 Descending Los Angeles Center
Wed 01:05:36 PM 36.0092 -115.0786 98° East 189 217 8,000 -290 Descending Los Angeles Center
Wed 01:06:03 PM 36.0181 -115.0522 67° East 190 219 8,000 -885 Level Los Angeles Center
Wed 01:06:37 PM 36.0458 -115.0397 20° North 191 220 7,100 -1,355 Descending Los Angeles Center
Wed 01:07:05 PM 36.0664 -115.0306 20° North 185 213 6,600 -984 Descending Los Angeles Center
Wed 01:07:38 PM 36.0911 -115.0194 20° North 173 199 6,100 -581 Descending Los Angeles Center
Wed 01:08:07 PM 36.1136 -115.0108 17° North 168 193 6,000 -492 Descending Los Angeles Center
Wed 01:08:39 PM 36.1275 -115.0367 304° West 185 213 5,600 -1,161 Descending Los Angeles Center
Wed 01:09:09 PM 36.1269 -115.0661 269° West 191 220 4,800 -1,574 Descending Los Angeles Center
Wed 01:09:40 PM 36.1258 -115.0986 268° West 182 209 4,000 -1,161 Descending Los Angeles Center
Wed 01:10:11 PM 36.1267 -115.1236 272° West 144 166 3,600 -1,075 Descending Los Angeles Center
Wed 01:10:47 PM 36.1189 -115.1461 247° West 119 137 2,800 -1,161 Descending Los Angeles Center
Wed 01:11:13 PM 36.1072 -115.1519 202° Southwest 120 138 2,400 -923 Descending Los Angeles Center
Wed 01:13:00 PM 36.0801 -115.1523 270° West  Level Estimated

Login

Don't have an account? Register now (free) for customized features, flight alerts, and more!